createdAt,value
2019-03-28T00:01:08.544Z,102017.22
2019-03-28T00:03:39.148Z,102010.50
2019-03-28T00:06:08.064Z,102006.18
2019-03-28T00:08:36.851Z,102008.86
2019-03-28T00:11:07.052Z,102012.66
2019-03-28T00:13:37.595Z,102008.41
2019-03-28T00:16:06.526Z,102010.66
2019-03-28T00:18:38.894Z,102019.60
2019-03-28T00:21:07.804Z,102020.08
2019-03-28T00:23:42.449Z,102010.80
2019-03-28T00:26:12.367Z,102008.66
2019-03-28T00:28:43.105Z,102013.66
2019-03-28T00:31:11.927Z,102010.81
2019-03-28T00:36:20.541Z,102010.63
2019-03-28T00:38:50.136Z,101998.62
2019-03-28T00:41:20.987Z,102007.17
2019-03-28T00:43:54.544Z,101999.86
2019-03-28T00:46:24.276Z,102001.09
2019-03-28T00:48:54.005Z,101996.22
2019-03-28T00:51:25.284Z,101999.31
2019-03-28T00:53:56.923Z,101999.95
2019-03-28T00:56:27.653Z,101998.15
2019-03-28T00:58:56.329Z,101997.76
2019-03-28T01:01:25.036Z,101998.25
2019-03-28T01:03:54.017Z,101991.59
2019-03-28T01:06:29.247Z,101987.62
2019-03-28T01:08:56.497Z,101985.77
2019-03-28T01:11:27.066Z,101978.20
2019-03-28T01:14:00.529Z,101979.23
2019-03-28T01:19:27.051Z,101985.19
2019-03-28T01:21:57.185Z,101988.28
2019-03-28T01:24:31.136Z,101994.45
2019-03-28T01:27:00.201Z,101982.73
2019-03-28T01:29:30.427Z,101988.51
2019-03-28T01:32:02.512Z,101978.07
2019-03-28T01:34:35.993Z,101987.03
2019-03-28T01:37:03.133Z,101980.30
2019-03-28T01:39:33.034Z,101977.93
2019-03-28T01:42:11.875Z,101985.06
2019-03-28T01:47:26.960Z,101992.41
2019-03-28T01:50:00.717Z,101981.29
2019-03-28T01:52:33.899Z,101981.95
2019-03-28T01:55:02.933Z,101978.39
2019-03-28T01:57:34.611Z,101981.63
2019-03-28T02:00:03.992Z,101977.55
2019-03-28T02:02:35.440Z,101980.89
2019-03-28T02:05:06.478Z,101968.39
2019-03-28T02:07:39.564Z,101971.38
2019-03-28T02:10:10.053Z,101963.64
2019-03-28T02:12:40.879Z,101979.14
2019-03-28T02:15:12.083Z,101979.41
2019-03-28T02:17:43.854Z,101979.76
2019-03-28T02:20:12.746Z,101977.62
2019-03-28T02:22:42.680Z,101972.27
2019-03-28T02:25:14.674Z,101976.95
2019-03-28T02:27:52.122Z,101973.34
2019-03-28T02:30:34.604Z,101974.27
2019-03-28T02:33:04.629Z,101974.09
2019-03-28T02:35:36.489Z,101978.08
2019-03-28T02:38:07.693Z,101974.80
2019-03-28T02:40:42.905Z,101967.55
2019-03-28T02:43:14.217Z,101974.67
2019-03-28T02:45:47.349Z,101973.23
2019-03-28T02:48:17.593Z,101971.17
2019-03-28T02:50:49.504Z,101968.58
2019-03-28T02:53:21.469Z,101964.09
2019-03-28T02:55:50.530Z,101972.42
2019-03-28T02:58:20.853Z,101977.39
2019-03-28T03:00:52.645Z,101973.60
2019-03-28T03:03:26.034Z,101979.80
2019-03-28T03:06:00.145Z,101982.84
2019-03-28T03:08:34.929Z,101980.58
2019-03-28T03:11:03.818Z,101979.34
2019-03-28T03:13:37.222Z,101984.17
2019-03-28T03:16:10.078Z,101971.75
2019-03-28T03:18:39.199Z,101972.81
2019-03-28T03:21:10.074Z,101977.34
2019-03-28T03:23:43.581Z,101971.38
2019-03-28T03:26:13.410Z,101969.83
2019-03-28T03:28:44.697Z,101976.54
2019-03-28T03:31:20.867Z,101980.50
2019-03-28T03:33:49.506Z,101980.61
2019-03-28T03:36:19.094Z,101974.34
2019-03-28T03:38:52.033Z,101977.30
2019-03-28T03:41:27.647Z,101976.98
2019-03-28T03:43:59.406Z,101975.52
2019-03-28T03:46:30.390Z,101985.39
2019-03-28T03:49:00.322Z,101986.55
2019-03-28T03:51:31.272Z,101988.02
2019-03-28T03:54:06.188Z,101986.19
2019-03-28T03:59:16.578Z,101990.66
2019-03-28T04:01:50.409Z,101990.09
2019-03-28T04:04:26.394Z,101995.77
2019-03-28T04:06:57.394Z,102005.13
2019-03-28T04:09:27.708Z,102002.66
2019-03-28T04:12:01.701Z,102001.48
2019-03-28T04:14:34.732Z,102004.05
2019-03-28T04:17:05.754Z,102003.08
2019-03-28T04:19:37.361Z,101998.33
2019-03-28T04:22:07.419Z,102000.63
2019-03-28T04:24:43.103Z,102004.66
2019-03-28T04:27:15.814Z,102006.43
2019-03-28T04:29:46.353Z,102009.19
2019-03-28T04:32:23.123Z,102019.66
2019-03-28T04:34:54.481Z,102017.19
2019-03-28T04:37:24.705Z,102028.41
2019-03-28T04:42:46.011Z,102028.32
2019-03-28T04:45:18.737Z,102026.22
2019-03-28T04:47:46.909Z,102031.25
2019-03-28T04:50:22.843Z,102039.05
2019-03-28T04:52:56.973Z,102027.52
2019-03-28T04:55:26.506Z,102030.06
2019-03-28T04:57:57.414Z,102036.25
2019-03-28T05:00:31.230Z,102040.03
2019-03-28T05:03:01.450Z,102043.09
2019-03-28T05:05:39.865Z,102036.44
2019-03-28T05:08:13.030Z,102039.20
2019-03-28T05:10:43.900Z,102039.59
2019-03-28T05:13:15.738Z,102032.39
2019-03-28T05:15:49.403Z,102032.30
2019-03-28T05:18:21.217Z,102035.70
2019-03-28T05:20:55.734Z,102035.20
2019-03-28T05:23:27.081Z,102040.51
2019-03-28T05:25:59.505Z,102047.99
2019-03-28T05:28:29.449Z,102045.22
2019-03-28T05:31:00.194Z,102044.28
2019-03-28T05:36:12.935Z,102045.84
2019-03-28T05:38:44.887Z,102039.96
2019-03-28T05:41:12.710Z,102044.75
2019-03-28T05:43:40.546Z,102044.07
2019-03-28T05:46:08.427Z,102040.35
2019-03-28T05:48:36.303Z,102044.26
2019-03-28T05:51:04.258Z,102058.65
2019-03-28T05:53:32.119Z,102048.58
2019-03-28T05:56:00.006Z,102046.87
2019-03-28T05:58:27.873Z,102049.48
2019-03-28T06:00:55.806Z,102067.70
2019-03-28T06:03:37.741Z,102066.77
2019-03-28T06:06:05.610Z,102065.75
2019-03-28T06:08:33.454Z,102063.41
2019-03-28T06:11:01.334Z,102065.25
2019-03-28T06:13:29.198Z,102066.30
2019-03-28T06:15:57.071Z,102073.99
2019-03-28T06:18:24.919Z,102075.64
2019-03-28T06:20:52.799Z,102073.06
2019-03-28T06:23:20.650Z,102070.20
2019-03-28T06:25:49.533Z,102069.95
2019-03-28T06:28:16.382Z,102073.35
2019-03-28T06:30:44.505Z,102079.45
2019-03-28T06:33:12.113Z,102079.45
2019-03-28T06:35:40.002Z,102072.27
2019-03-28T06:38:07.850Z,102078.64
2019-03-28T06:40:35.680Z,102076.02
2019-03-28T06:43:03.454Z,102078.75
2019-03-28T06:45:31.278Z,102074.30
2019-03-28T06:47:59.142Z,102077.58
2019-03-28T06:50:26.962Z,102069.20
2019-03-28T06:52:54.736Z,102058.75
2019-03-28T06:55:24.050Z,102064.09
2019-03-28T06:57:50.378Z,102062.19
2019-03-28T07:00:18.166Z,102059.84
2019-03-28T07:02:45.954Z,102062.25
2019-03-28T07:05:13.734Z,102064.39
2019-03-28T07:07:41.534Z,102074.88
2019-03-28T07:10:09.329Z,102071.73
2019-03-28T07:12:37.124Z,102070.66
2019-03-28T07:15:05.243Z,102074.73
2019-03-28T07:17:33.057Z,102070.55
2019-03-28T07:20:00.857Z,102070.73
2019-03-28T07:22:28.666Z,102071.14
2019-03-28T07:24:56.473Z,102072.28
2019-03-28T07:27:24.291Z,102063.23
2019-03-28T07:29:53.101Z,102056.09
2019-03-28T07:32:19.870Z,102062.34
2019-03-28T07:34:47.650Z,102062.94
2019-03-28T07:37:15.639Z,102062.77
2019-03-28T07:39:43.435Z,102066.27
2019-03-28T07:42:11.256Z,102064.72
2019-03-28T07:44:39.034Z,102061.25
2019-03-28T07:47:06.889Z,102066.22
2019-03-28T07:49:37.453Z,102070.39
2019-03-28T07:52:02.542Z,102063.66
2019-03-28T07:54:30.327Z,102056.70
2019-03-28T07:56:58.135Z,102062.20
2019-03-28T07:59:25.947Z,102060.81
2019-03-28T08:01:53.742Z,102056.47
2019-03-28T08:04:21.536Z,102055.03
2019-03-28T08:06:50.421Z,102049.95
2019-03-28T08:09:17.633Z,102048.72
2019-03-28T08:11:48.078Z,102044.14
2019-03-28T08:14:12.713Z,102036.41
2019-03-28T08:16:40.539Z,102047.57
2019-03-28T08:19:08.430Z,102047.68
2019-03-28T08:21:36.203Z,102051.42
2019-03-28T08:24:04.023Z,102041.27
2019-03-28T08:26:31.818Z,102041.13
2019-03-28T08:28:59.614Z,102036.42
2019-03-28T08:31:27.398Z,102038.28
2019-03-28T08:33:55.218Z,102039.11
2019-03-28T08:36:23.002Z,102041.14
2019-03-28T08:38:50.803Z,102036.78
2019-03-28T08:41:19.661Z,102037.13
2019-03-28T08:43:46.433Z,102031.19
2019-03-28T08:46:14.215Z,102035.06
2019-03-28T08:48:42.010Z,102038.22
2019-03-28T08:51:09.814Z,102035.08
2019-03-28T08:53:37.642Z,102032.88
2019-03-28T08:56:05.461Z,102032.69
2019-03-28T08:58:33.278Z,102028.75
2019-03-28T09:01:01.065Z,102033.25
2019-03-28T09:03:28.872Z,102019.73
2019-03-28T09:05:56.691Z,102021.05
2019-03-28T09:08:24.458Z,102020.81
2019-03-28T09:10:52.250Z,102016.36
2019-03-28T09:13:20.038Z,102015.80
2019-03-28T09:15:47.826Z,102015.21
2019-03-28T09:18:15.634Z,102017.27
2019-03-28T09:20:43.426Z,102012.53
2019-03-28T09:23:11.241Z,102014.55
2019-03-28T09:25:39.010Z,102005.30
2019-03-28T09:28:06.810Z,102008.53
2019-03-28T09:30:47.891Z,102007.23
2019-03-28T09:33:04.877Z,102013.22
2019-03-28T09:35:32.673Z,101998.63
2019-03-28T09:38:00.443Z,101994.02
2019-03-28T09:40:28.222Z,101994.27
2019-03-28T09:42:56.022Z,101988.75
2019-03-28T09:45:23.847Z,101994.81
2019-03-28T09:47:51.642Z,101989.69
2019-03-28T09:50:19.434Z,101997.55
2019-03-28T09:52:47.218Z,101993.41
2019-03-28T09:55:15.015Z,101987.90
2019-03-28T09:57:42.799Z,101981.64
2019-03-28T10:00:10.878Z,101983.09
2019-03-28T10:02:38.694Z,101989.00
2019-03-28T10:05:06.538Z,102001.50
2019-03-28T10:07:34.318Z,101983.66
2019-03-28T10:10:02.989Z,101986.07
2019-03-28T10:12:29.907Z,101987.31
2019-03-28T10:14:57.706Z,101979.88
2019-03-28T10:17:25.499Z,101968.31
2019-03-28T10:19:53.294Z,101975.58
2019-03-28T10:22:22.374Z,101970.23
2019-03-28T10:24:48.899Z,101972.67
2019-03-28T10:27:19.146Z,101970.02
2019-03-28T10:29:44.504Z,101961.22
2019-03-28T10:32:12.291Z,101959.97
2019-03-28T10:34:40.146Z,101947.63
2019-03-28T10:37:07.879Z,101959.02
2019-03-28T10:39:35.674Z,101953.17
2019-03-28T10:42:03.502Z,101959.48
2019-03-28T10:44:31.302Z,101947.78
2019-03-28T10:46:59.086Z,101950.97
2019-03-28T10:49:26.883Z,101945.84
2019-03-28T10:51:54.668Z,101945.70
2019-03-28T10:54:25.579Z,101949.73
2019-03-28T10:56:52.436Z,101950.02
2019-03-28T10:59:23.445Z,101938.19
2019-03-28T11:01:50.693Z,101943.41
2019-03-28T11:04:13.701Z,101940.12
2019-03-28T11:06:41.494Z,101942.22
2019-03-28T11:09:09.298Z,101937.73
2019-03-28T11:11:37.077Z,101936.94
2019-03-28T11:14:04.874Z,101935.63
2019-03-28T11:16:32.659Z,101935.70
2019-03-28T11:19:00.454Z,101929.01
2019-03-28T11:21:28.285Z,101916.88
2019-03-28T11:23:56.085Z,101927.20
2019-03-28T11:26:23.906Z,101926.82
2019-03-28T11:28:51.701Z,101921.59
2019-03-28T11:31:19.482Z,101915.58
2019-03-28T11:33:47.634Z,101916.30
2019-03-28T11:36:15.073Z,101919.39
2019-03-28T11:38:42.874Z,101904.05
2019-03-28T11:41:10.650Z,101909.05
2019-03-28T11:43:38.454Z,101907.66
2019-03-28T11:46:06.262Z,101904.09
2019-03-28T11:48:34.042Z,101905.05
2019-03-28T11:51:01.834Z,101913.93
2019-03-28T11:53:29.638Z,101898.70
2019-03-28T11:55:57.459Z,101893.70
2019-03-28T11:58:25.233Z,101893.45
2019-03-28T12:00:53.046Z,101889.45
2019-03-28T12:03:20.827Z,101897.67
2019-03-28T12:05:48.668Z,101893.94
2019-03-28T12:08:16.463Z,101892.02
2019-03-28T12:10:44.271Z,101877.15
2019-03-28T12:13:12.051Z,101879.42
2019-03-28T12:15:39.850Z,101873.97
2019-03-28T12:18:07.629Z,101872.31
2019-03-28T12:20:35.433Z,101868.33
2019-03-28T12:23:03.302Z,101873.98
2019-03-28T12:25:31.104Z,101877.33
2019-03-28T12:28:00.358Z,101869.19
2019-03-28T12:30:26.708Z,101874.53
2019-03-28T12:32:54.482Z,101879.94
2019-03-28T12:35:22.292Z,101876.64
2019-03-28T12:37:50.078Z,101873.91
2019-03-28T12:40:17.870Z,101867.70
2019-03-28T12:42:45.665Z,101868.47
2019-03-28T12:45:13.482Z,101862.05
2019-03-28T12:47:43.052Z,101861.50
2019-03-28T12:50:09.142Z,101857.22
2019-03-28T12:52:36.925Z,101855.39
2019-03-28T12:55:04.983Z,101859.05
2019-03-28T12:57:32.773Z,101861.15
2019-03-28T13:00:00.637Z,101852.79
2019-03-28T13:02:31.791Z,101846.22
2019-03-28T13:04:56.222Z,101852.27
2019-03-28T13:07:24.017Z,101841.23
2019-03-28T13:09:51.818Z,101843.33
2019-03-28T13:12:19.597Z,101841.53
2019-03-28T13:14:47.800Z,101841.09
2019-03-28T13:17:15.206Z,101840.42
2019-03-28T13:19:43.001Z,101836.55
2019-03-28T13:22:10.789Z,101838.36
2019-03-28T13:24:38.595Z,101831.56
2019-03-28T13:27:06.383Z,101826.26
2019-03-28T13:29:34.198Z,101831.61
2019-03-28T13:32:02.005Z,101824.08
2019-03-28T13:34:29.786Z,101823.87
2019-03-28T13:36:57.586Z,101824.66
2019-03-28T13:39:25.381Z,101825.91
2019-03-28T13:41:53.190Z,101814.87
2019-03-28T13:44:20.986Z,101805.90
2019-03-28T13:46:48.802Z,101807.47
2019-03-28T13:49:17.274Z,101805.44
2019-03-28T13:51:45.078Z,101795.16
2019-03-28T13:54:12.918Z,101799.63
2019-03-28T13:56:40.731Z,101806.38
2019-03-28T13:59:08.509Z,101804.20
2019-03-28T14:01:37.128Z,101802.96
2019-03-28T14:04:04.914Z,101799.52
2019-03-28T14:06:32.813Z,101797.00
2019-03-28T14:09:00.602Z,101790.82
2019-03-28T14:11:28.407Z,101787.72
2019-03-28T14:13:56.198Z,101784.31
2019-03-28T14:16:23.998Z,101785.28
2019-03-28T14:18:51.778Z,101793.48
2019-03-28T14:21:19.578Z,101794.16
2019-03-28T14:23:47.372Z,101784.27
2019-03-28T14:26:15.154Z,101796.19
2019-03-28T14:28:42.963Z,101791.90
2019-03-28T14:31:10.850Z,101801.61
2019-03-28T14:33:38.682Z,101802.09
2019-03-28T14:36:06.489Z,101805.31
2019-03-28T14:38:37.276Z,101807.11
2019-03-28T14:41:02.150Z,101803.76
2019-03-28T14:43:29.989Z,101802.73
2019-03-28T14:45:57.827Z,101810.26
2019-03-28T14:48:25.724Z,101805.98
2019-03-28T14:50:53.669Z,101800.45
2019-03-28T14:53:22.364Z,101800.51
2019-03-28T14:55:49.151Z,101799.63
2019-03-28T14:58:16.917Z,101802.67
2019-03-28T15:00:49.029Z,101791.04
2019-03-28T15:03:25.621Z,101795.27
2019-03-28T15:05:44.629Z,101800.31
2019-03-28T15:08:12.434Z,101802.36
2019-03-28T15:10:40.258Z,101797.11
2019-03-28T15:13:08.043Z,101792.29
2019-03-28T15:15:35.832Z,101794.34
2019-03-28T15:18:03.938Z,101789.30
2019-03-28T15:20:31.454Z,101790.27
2019-03-28T15:22:59.237Z,101786.91
2019-03-28T15:25:27.030Z,101789.33
2019-03-28T15:27:57.963Z,101789.45
2019-03-28T15:30:25.766Z,101792.97
2019-03-28T15:32:53.557Z,101785.86
2019-03-28T15:35:21.366Z,101791.58
2019-03-28T15:37:49.177Z,101789.31
2019-03-28T15:40:16.985Z,101783.64
2019-03-28T15:42:44.772Z,101784.89
2019-03-28T15:45:12.586Z,101775.94
2019-03-28T15:47:40.386Z,101788.61
2019-03-28T15:50:08.220Z,101786.33
2019-03-28T15:52:35.994Z,101787.59
2019-03-28T15:55:03.899Z,101783.57
2019-03-28T15:57:31.706Z,101790.75
2019-03-28T15:59:59.505Z,101784.75
2019-03-28T16:02:27.329Z,101784.70
2019-03-28T16:04:55.122Z,101783.80
2019-03-28T16:07:22.907Z,101781.46
2019-03-28T16:09:50.706Z,101783.94
2019-03-28T16:12:18.493Z,101780.63
2019-03-28T16:14:46.286Z,101783.11
2019-03-28T16:17:14.062Z,101778.73
2019-03-28T16:19:45.010Z,101782.47
2019-03-28T16:22:09.681Z,101778.63
2019-03-28T16:24:37.483Z,101784.89
2019-03-28T16:27:05.271Z,101787.86
2019-03-28T16:29:33.794Z,101788.83
2019-03-28T16:32:00.894Z,101790.48
2019-03-28T16:34:28.744Z,101783.92
2019-03-28T16:36:56.522Z,101786.08
2019-03-28T16:39:24.307Z,101787.78
2019-03-28T16:41:52.113Z,101777.72
2019-03-28T16:44:19.902Z,101775.47
2019-03-28T16:46:47.701Z,101774.91
2019-03-28T16:49:15.490Z,101781.98
2019-03-28T16:51:43.684Z,101779.72
2019-03-28T16:54:11.118Z,101779.80
2019-03-28T16:56:38.927Z,101765.78
2019-03-28T16:59:06.720Z,101782.23
2019-03-28T17:01:34.604Z,101783.08
2019-03-28T17:04:02.444Z,101791.16
2019-03-28T17:06:30.322Z,101786.85
2019-03-28T17:08:58.107Z,101783.03
2019-03-28T17:11:25.915Z,101790.75
2019-03-28T17:13:53.706Z,101789.78
2019-03-28T17:16:21.551Z,101790.84
2019-03-28T17:18:49.335Z,101795.59
2019-03-28T17:21:17.213Z,101796.63
2019-03-28T17:23:44.990Z,101800.03
2019-03-28T17:26:12.822Z,101798.84
2019-03-28T17:28:40.610Z,101803.27
2019-03-28T17:31:08.410Z,101805.31
2019-03-28T17:33:36.192Z,101804.69
2019-03-28T17:36:04.011Z,101809.84
2019-03-28T17:38:31.789Z,101806.97
2019-03-28T17:40:59.612Z,101811.84
2019-03-28T17:43:27.394Z,101809.92
2019-03-28T17:45:55.194Z,101809.23
2019-03-28T17:48:22.982Z,101812.08
2019-03-28T17:50:50.788Z,101816.43
2019-03-28T17:53:19.549Z,101817.90
2019-03-28T17:55:46.373Z,101818.03
2019-03-28T17:58:14.151Z,101824.09
2019-03-28T18:00:42.798Z,101819.11
2019-03-28T18:03:10.582Z,101815.67
2019-03-28T18:05:40.669Z,101824.24
2019-03-28T18:08:06.186Z,101817.70
2019-03-28T18:10:33.966Z,101827.39
2019-03-28T18:13:01.765Z,101826.20
2019-03-28T18:15:29.542Z,101832.98
2019-03-28T18:17:57.346Z,101830.50
2019-03-28T18:20:25.133Z,101832.97
2019-03-28T18:22:52.942Z,101832.99
2019-03-28T18:25:20.722Z,101840.48
2019-03-28T18:27:48.538Z,101846.41
2019-03-28T18:30:16.345Z,101842.38
2019-03-28T18:32:44.861Z,101849.12
2019-03-28T18:35:11.950Z,101851.96
2019-03-28T18:37:39.766Z,101860.86
2019-03-28T18:40:07.589Z,101858.34
2019-03-28T18:42:35.400Z,101857.28
2019-03-28T18:45:03.270Z,101866.08
2019-03-28T18:47:31.075Z,101865.70
2019-03-28T18:49:58.863Z,101863.33
2019-03-28T18:52:26.763Z,101862.94
2019-03-28T18:54:54.546Z,101865.67
2019-03-28T18:57:22.371Z,101862.97
2019-03-28T18:59:50.230Z,101859.67
2019-03-28T19:02:18.040Z,101866.20
2019-03-28T19:04:45.864Z,101856.47
2019-03-28T19:07:13.662Z,101860.63
2019-03-28T19:09:41.626Z,101872.22
2019-03-28T19:12:09.426Z,101873.05
2019-03-28T19:14:37.214Z,101871.03
2019-03-28T19:17:05.546Z,101877.55
2019-03-28T19:19:39.195Z,101876.98
2019-03-28T19:22:01.154Z,101880.61
2019-03-28T19:24:28.934Z,101888.27
2019-03-28T19:26:56.730Z,101887.67
2019-03-28T19:29:24.512Z,101878.19
2019-03-28T19:31:52.306Z,101887.08
2019-03-28T19:34:20.091Z,101885.80
2019-03-28T19:36:47.886Z,101886.94
2019-03-28T19:39:17.566Z,101889.05
2019-03-28T19:41:45.378Z,101890.09
2019-03-28T19:44:13.157Z,101886.79
2019-03-28T19:46:40.926Z,101890.45
2019-03-28T19:49:08.746Z,101887.48
2019-03-28T19:51:36.539Z,101892.20
2019-03-28T19:54:04.354Z,101888.48
2019-03-28T19:56:32.109Z,101888.84
2019-03-28T19:58:59.965Z,101888.94
2019-03-28T20:01:27.738Z,101891.21
2019-03-28T20:03:55.595Z,101891.93
2019-03-28T20:06:24.285Z,101882.48
2019-03-28T20:08:51.179Z,101881.37
2019-03-28T20:11:18.984Z,101884.12
2019-03-28T20:13:46.762Z,101890.73
2019-03-28T20:16:14.594Z,101889.02
2019-03-28T20:18:43.178Z,101888.05
2019-03-28T20:21:10.166Z,101890.40
2019-03-28T20:23:37.966Z,101890.27
2019-03-28T20:26:05.757Z,101887.88
2019-03-28T20:28:33.591Z,101889.11
2019-03-28T20:31:01.487Z,101881.63
2019-03-28T20:33:29.278Z,101890.09
2019-03-28T20:36:12.032Z,101889.27
2019-03-28T20:38:24.858Z,101888.29
2019-03-28T20:40:52.642Z,101885.58
2019-03-28T20:43:20.448Z,101887.49
2019-03-28T20:45:48.247Z,101895.95
2019-03-28T20:48:16.951Z,101890.64
2019-03-28T20:50:43.874Z,101894.39
2019-03-28T20:53:12.013Z,101900.47
2019-03-28T20:55:39.564Z,101897.39
2019-03-28T20:58:07.384Z,101897.39
2019-03-28T21:00:39.064Z,101900.56
2019-03-28T21:03:06.322Z,101898.39
2019-03-28T21:05:34.110Z,101891.27
2019-03-28T21:08:01.925Z,101900.27
2019-03-28T21:10:33.141Z,101901.80
2019-03-28T21:12:57.602Z,101897.92
2019-03-28T21:15:25.378Z,101898.29
2019-03-28T21:17:53.185Z,101893.28
2019-03-28T21:20:20.962Z,101892.05
2019-03-28T21:22:48.838Z,101888.92
2019-03-28T21:25:16.628Z,101886.23
2019-03-28T21:27:44.443Z,101879.64
2019-03-28T21:30:12.228Z,101886.34
2019-03-28T21:32:40.062Z,101892.19
2019-03-28T21:35:07.886Z,101883.42
2019-03-28T21:37:35.690Z,101893.69
2019-03-28T21:40:03.525Z,101886.73
2019-03-28T21:42:31.303Z,101888.30
2019-03-28T21:44:59.116Z,101884.31
2019-03-28T21:47:26.914Z,101887.83
2019-03-28T21:49:54.685Z,101887.46
2019-03-28T21:52:22.489Z,101881.20
2019-03-28T21:54:50.788Z,101877.97
2019-03-28T21:57:18.079Z,101876.02
2019-03-28T21:59:45.881Z,101881.38
2019-03-28T22:02:13.683Z,101877.44
2019-03-28T22:04:41.464Z,101880.06
2019-03-28T22:07:09.273Z,101878.05
2019-03-28T22:09:39.611Z,101875.86
2019-03-28T22:12:04.901Z,101875.86
2019-03-28T22:14:32.678Z,101871.38
2019-03-28T22:17:00.479Z,101874.55
2019-03-28T22:19:28.282Z,101875.58
2019-03-28T22:21:56.207Z,101876.30
2019-03-28T22:24:23.901Z,101873.52
2019-03-28T22:26:51.733Z,101871.86
2019-03-28T22:29:20.748Z,101871.81
2019-03-28T22:31:47.485Z,101871.81
2019-03-28T22:34:15.290Z,101870.25
2019-03-28T22:36:56.205Z,101871.30
2019-03-28T22:39:10.887Z,101867.37
2019-03-28T22:41:38.666Z,101861.45
2019-03-28T22:44:06.613Z,101869.05
2019-03-28T22:46:34.401Z,101867.97
2019-03-28T22:49:02.194Z,101867.00
2019-03-28T22:51:31.703Z,101864.19
2019-03-28T22:53:57.766Z,101859.64
2019-03-28T22:56:25.557Z,101861.45
2019-03-28T22:58:53.391Z,101858.44
2019-03-28T23:01:21.177Z,101859.28
2019-03-28T23:03:48.982Z,101863.44
2019-03-28T23:06:16.763Z,101861.45
2019-03-28T23:08:44.577Z,101864.23
2019-03-28T23:11:12.365Z,101860.94
2019-03-28T23:13:40.181Z,101864.17
2019-03-28T23:16:07.973Z,101859.64
2019-03-28T23:18:35.786Z,101856.40
2019-03-28T23:21:03.591Z,101855.66
2019-03-28T23:23:31.517Z,101857.51
2019-03-28T23:25:59.307Z,101850.31
2019-03-28T23:28:27.110Z,101851.97
2019-03-28T23:30:54.958Z,101854.66
2019-03-28T23:33:22.736Z,101852.11
2019-03-28T23:35:50.513Z,101860.65
2019-03-28T23:38:18.318Z,101856.30
2019-03-28T23:40:46.109Z,101850.83
2019-03-28T23:43:13.918Z,101860.84
2019-03-28T23:45:41.697Z,101856.96
2019-03-28T23:48:09.778Z,101861.75
2019-03-28T23:50:37.558Z,101863.87
2019-03-28T23:53:05.399Z,101863.63
2019-03-28T23:55:33.182Z,101862.69
2019-03-28T23:58:00.975Z,101869.63
